Time;durP1;ratioP1;P1;durP2;ratioP2;P2;SDS_P1;SDS_P2;PMS_P1;PMS_P2;Temp;Humidity;BMP_temperature;BMP_pressure;BME280_temperature;BME280_humidity;BME280_pressure;Samples;Min_cycle;Max_cycle;Signal;HPM_P1;HPM_P2
2022/09/22 00:00:35;;;;;;;5.13;1.38;;;9.10;99.90;;;;;;5133268;27;20119;-70
2022/09/22 00:03:00;;;;;;;2.72;1.38;;;9.00;99.90;;;;;;5105034;28;20039;-71
2022/09/22 00:05:26;;;;;;;1.65;1.30;;;9.00;99.90;;;;;;5107053;27;20070;-70
2022/09/22 00:07:52;;;;;;;4.28;1.50;;;9.00;99.90;;;;;;5132260;27;20041;-72
2022/09/22 00:10:21;;;;;;;1.88;1.10;;;8.90;99.90;;;;;;5114561;27;20046;-69
2022/09/22 00:12:48;;;;;;;2.08;1.33;;;8.90;99.90;;;;;;5129144;27;20082;-70
2022/09/22 00:15:15;;;;;;;5.97;1.77;;;8.90;99.90;;;;;;5132480;27;20047;-69
2022/09/22 00:17:41;;;;;;;2.85;1.45;;;8.90;99.90;;;;;;5130739;27;20043;-70
2022/09/22 00:20:07;;;;;;;20.10;1.50;;;8.80;99.90;;;;;;5118329;27;20047;-69
2022/09/22 00:22:33;;;;;;;1.35;1.05;;;8.80;99.90;;;;;;5128575;27;20123;-69
2022/09/22 00:25:00;;;;;;;2.75;1.30;;;8.80;99.90;;;;;;5111621;28;20051;-70
2022/09/22 00:27:25;;;;;;;4.63;1.23;;;8.70;99.90;;;;;;5128828;27;20118;-71
2022/09/22 00:29:51;;;;;;;3.85;1.83;;;8.70;99.90;;;;;;5132572;27;20127;-71
2022/09/22 00:32:17;;;;;;;5.85;1.33;;;8.60;99.90;;;;;;5129873;27;20062;-70
2022/09/22 00:34:43;;;;;;;6.40;1.40;;;8.60;99.90;;;;;;5132824;27;20074;-69
2022/09/22 00:37:09;;;;;;;4.55;1.30;;;8.70;99.90;;;;;;5113509;27;20054;-70
2022/09/22 00:39:35;;;;;;;;;;;8.70;99.90;;;;;;5114907;27;20047;-69
2022/09/22 00:42:03;;;;;;;4.47;1.85;;;8.70;99.90;;;;;;5129109;27;19915;-69
2022/09/22 00:44:39;;;;;;;4.60;1.70;;;8.60;99.90;;;;;;5117619;27;20032;-69
2022/09/22 00:47:17;;;;;;;3.30;1.75;;;8.60;99.90;;;;;;5091308;28;20044;-70
2022/09/22 00:49:51;;;;;;;5.07;2.05;;;8.60;99.90;;;;;;5093880;28;20378;-69
2022/09/22 00:52:27;;;;;;;2.95;1.65;;;8.60;99.90;;;;;;5092989;28;20079;-70
2022/09/22 00:54:56;;;;;;;3.05;2.00;;;8.50;99.90;;;;;;5102790;27;20054;-71
2022/09/22 00:57:25;;;;;;;4.28;1.73;;;8.60;99.90;;;;;;5131520;27;20150;-69
2022/09/22 00:59:52;;;;;;;3.10;1.60;;;8.60;99.90;;;;;;5113882;27;20048;-70
2022/09/22 01:02:19;;;;;;;4.53;1.70;;;8.60;99.90;;;;;;5122359;27;20385;-71
2022/09/22 01:04:48;;;;;;;3.45;1.60;;;8.60;99.90;;;;;;5111601;28;20050;-70
2022/09/22 01:07:14;;;;;;;4.43;1.73;;;8.70;99.90;;;;;;5075844;28;20075;-69
2022/09/22 01:09:40;;;;;;;3.42;1.70;;;8.60;99.90;;;;;;5121384;27;20038;-70
2022/09/22 01:12:06;;;;;;;3.42;1.52;;;8.60;99.90;;;;;;5112551;27;20039;-71
2022/09/22 01:14:35;;;;;;;;;;;8.60;99.90;;;;;;5094083;28;20084;-69
2022/09/22 01:17:29;;;;;;;6.57;1.67;;;8.50;99.90;;;;;;5108258;28;20036;-70
2022/09/22 01:20:26;;;;;;;3.42;1.50;;;8.50;99.90;;;;;;5111295;28;20082;-71
2022/09/22 01:23:29;;;;;;;2.13;0.95;;;8.40;99.90;;;;;;5094096;27;20152;-69
2022/09/22 01:26:29;;;;;;;3.03;1.20;;;8.40;99.90;;;;;;5112984;27;20047;-71
2022/09/22 01:29:13;;;;;;;5.13;1.65;;;8.30;99.90;;;;;;5110464;28;20473;-71
2022/09/22 01:32:06;;;;;;;4.97;1.80;;;8.20;99.90;;;;;;5108537;28;20108;-70
2022/09/22 01:34:36;;;;;;;3.22;2.00;;;8.20;99.90;;;;;;5123763;27;20055;-69
2022/09/22 01:37:13;;;;;;;6.45;2.50;;;8.10;99.90;;;;;;5130752;27;20114;-70
2022/09/22 01:39:46;;;;;;;3.92;2.30;;;8.10;99.90;;;;;;5108605;28;20039;-70
2022/09/22 01:42:35;;;;;;;3.03;2.40;;;8.20;99.90;;;;;;5091860;28;20043;-70
2022/09/22 01:45:11;;;;;;;3.65;1.90;;;8.20;99.90;;;;;;5101181;27;20055;-71
2022/09/22 01:47:48;;;;;;;3.67;2.08;;;8.20;99.90;;;;;;5098708;28;20039;-70
2022/09/22 01:50:24;;;;;;;2.47;1.90;;;8.10;99.90;;;;;;5109855;28;20556;-69
2022/09/22 01:52:52;;;;;;;2.08;1.45;;;8.10;99.90;;;;;;5092478;28;20036;-70
2022/09/22 01:55:31;;;;;;;2.10;1.40;;;8.20;99.90;;;;;;5120640;27;20080;-69
2022/09/22 01:58:02;;;;;;;6.30;1.80;;;8.00;99.90;;;;;;5091792;28;20047;-71
2022/09/22 02:00:28;;;;;;;2.17;1.40;;;8.10;99.90;;;;;;5110540;28;20756;-70
2022/09/22 02:02:56;;;;;;;1.90;1.27;;;8.00;99.90;;;;;;5108610;28;20042;-70
2022/09/22 02:05:31;;;;;;;1.60;1.20;;;8.00;99.90;;;;;;5109823;28;20263;-69
2022/09/22 02:08:00;;;;;;;2.60;1.67;;;7.90;99.90;;;;;;5103861;27;20061;-70
2022/09/22 02:10:33;;;;;;;6.13;2.40;;;7.90;99.90;;;;;;5126462;27;20039;-70
2022/09/22 02:13:00;;;;;;;5.88;2.15;;;7.90;99.90;;;;;;5109155;27;20050;-71
2022/09/22 02:18:17;;;;;;;3.22;2.00;;;7.80;99.90;;;;;;5127266;27;20428;-70
2022/09/22 02:20:43;;;;;;;3.08;1.73;;;7.80;99.90;;;;;;5112332;27;20468;-70
2022/09/22 02:23:09;;;;;;;4.97;1.40;;;7.80;99.90;;;;;;5129860;27;20047;-70
2022/09/22 02:25:36;;;;;;;4.25;2.10;;;7.70;99.90;;;;;;5111903;27;20043;-70
2022/09/22 02:28:03;;;;;;;8.75;1.70;;;7.70;99.90;;;;;;5129782;27;20146;-72
2022/09/22 02:30:30;;;;;;;3.95;2.17;;;7.70;99.90;;;;;;5130480;27;20099;-70
2022/09/22 02:32:57;;;;;;;7.18;1.95;;;7.70;99.90;;;;;;5110258;28;20062;-71
2022/09/22 02:35:26;;;;;;;1.77;1.42;;;7.60;99.90;;;;;;5110934;27;20057;-70
2022/09/22 02:38:02;;;;;;;3.85;2.25;;;7.60;99.90;;;;;;5130327;27;20047;-71
2022/09/22 02:40:42;;;;;;;3.97;1.75;;;7.60;99.90;;;;;;5115811;28;20043;-70
2022/09/22 02:43:38;;;;;;;4.25;2.25;;;7.60;99.90;;;;;;5108497;28;20457;-70
2022/09/22 02:46:17;;;;;;;5.97;2.63;;;7.70;99.90;;;;;;5117505;28;20043;-72
2022/09/22 02:48:48;;;;;;;5.95;2.20;;;7.70;99.90;;;;;;5129796;28;20046;-69
2022/09/22 02:51:15;;;;;;;14.73;1.60;;;7.80;99.90;;;;;;5129880;28;20043;-69
2022/09/22 02:53:41;;;;;;;5.22;1.30;;;7.70;99.90;;;;;;5130233;28;20046;-69
2022/09/22 02:56:07;;;;;;;4.60;1.77;;;7.70;99.90;;;;;;5118764;28;20047;-72
2022/09/22 02:58:32;;;;;;;5.20;2.17;;;7.60;99.90;;;;;;5118101;28;20047;-71
2022/09/22 03:00:58;;;;;;;5.88;2.70;;;7.60;99.90;;;;;;5129387;28;20051;-70
2022/09/22 03:03:23;;;;;;;5.00;2.65;;;7.60;99.90;;;;;;5121903;28;20500;-70
2022/09/22 03:05:49;;;;;;;6.75;3.20;;;7.60;99.90;;;;;;5100620;28;20055;-70
2022/09/22 03:08:15;;;;;;;5.82;3.15;;;7.60;99.90;;;;;;5097431;28;20043;-71
2022/09/22 03:10:40;;;;;;;3.92;2.10;;;7.50;99.90;;;;;;5091504;28;20073;-71
2022/09/22 03:13:06;;;;;;;1.80;1.40;;;7.50;99.90;;;;;;5108560;28;20047;-72
2022/09/22 03:15:32;;;;;;;3.20;2.10;;;7.50;99.90;;;;;;5109278;28;20432;-71
2022/09/22 03:17:58;;;;;;;6.75;2.20;;;7.50;99.90;;;;;;5107195;28;20044;-71
2022/09/22 03:20:23;;;;;;;9.80;3.33;;;7.50;99.90;;;;;;5073978;28;20047;-71
2022/09/22 03:22:49;;;;;;;7.28;3.35;;;7.40;99.90;;;;;;5122461;28;20092;-71
2022/09/22 03:25:15;;;;;;;5.22;2.90;;;7.40;99.90;;;;;;5123917;28;20043;-71
2022/09/22 03:27:40;;;;;;;5.20;2.83;;;7.30;99.90;;;;;;5129450;28;20109;-71
2022/09/22 03:30:07;;;;;;;5.57;3.47;;;7.40;99.90;;;;;;5129630;28;20115;-72
2022/09/22 03:32:33;;;;;;;5.93;3.55;;;7.30;99.90;;;;;;5127498;28;20105;-70
2022/09/22 03:34:59;;;;;;;4.60;1.90;;;7.30;99.90;;;;;;5111857;28;20061;-70
2022/09/22 03:37:25;;;;;;;3.35;1.65;;;7.30;99.90;;;;;;5111098;28;20047;-70
2022/09/22 03:39:50;;;;;;;2.10;1.60;;;7.30;99.90;;;;;;5130060;28;20429;-71
2022/09/22 03:42:16;;;;;;;1.60;1.30;;;7.20;99.90;;;;;;5113802;28;20082;-71
2022/09/22 03:44:42;;;;;;;1.85;1.45;;;7.20;99.90;;;;;;5109239;28;20052;-72
2022/09/22 03:47:08;;;;;;;3.22;2.00;;;7.10;99.90;;;;;;5089147;28;20052;-72
2022/09/22 03:49:34;;;;;;;6.80;2.25;;;7.10;99.90;;;;;;5108561;28;20047;-70
2022/09/22 03:52:00;;;;;;;4.95;2.85;;;7.00;99.90;;;;;;5115981;28;20045;-71
2022/09/22 03:54:25;;;;;;;3.53;1.95;;;7.00;99.90;;;;;;5110657;27;20128;-68
2022/09/22 03:56:51;;;;;;;10.23;3.55;;;7.00;99.90;;;;;;5124059;27;20111;-68
2022/09/22 03:59:17;;;;;;;7.72;3.33;;;7.00;99.90;;;;;;5128833;27;20078;-70
2022/09/22 04:01:43;;;;;;;7.72;3.83;;;7.00;99.90;;;;;;5113047;27;20055;-70
2022/09/22 04:04:09;;;;;;;9.10;4.57;;;7.00;99.90;;;;;;5115013;27;20056;-72
2022/09/22 04:06:36;;;;;;;;;;;7.00;99.90;;;;;;5119629;27;20078;-68
2022/09/22 04:09:02;;;;;;;7.80;3.72;;;7.00;99.90;;;;;;5131871;27;20259;-70
2022/09/22 04:11:28;;;;;;;5.88;3.97;;;7.10;99.90;;;;;;5131989;27;20864;-70
2022/09/22 04:13:53;;;;;;;8.48;4.60;;;7.00;99.90;;;;;;5132909;27;20043;-70
2022/09/22 04:16:20;;;;;;;7.65;4.43;;;7.10;99.90;;;;;;5114816;27;20051;-69
2022/09/22 04:18:45;;;;;;;;;;;7.10;99.90;;;;;;5096686;27;20043;-70
2022/09/22 04:21:11;;;;;;;10.77;5.22;;;7.00;99.90;;;;;;5123823;27;20374;-70
2022/09/22 04:23:37;;;;;;;8.48;4.40;;;7.00;99.90;;;;;;5132455;27;20039;-68
2022/09/22 04:26:03;;;;;;;8.23;4.80;;;7.10;99.90;;;;;;5097496;27;20043;-68
2022/09/22 04:28:29;;;;;;;;;;;7.10;99.90;;;;;;5108542;28;20100;-68
2022/09/22 04:30:55;;;;;;;13.82;3.50;;;7.10;99.90;;;;;;5119453;27;19916;-71
2022/09/22 04:33:21;;;;;;;15.93;2.78;;;7.10;99.90;;;;;;5101823;28;20135;-69
2022/09/22 04:35:48;;;;;;;3.28;2.17;;;7.10;99.90;;;;;;5111901;28;20541;-70
2022/09/22 04:38:14;;;;;;;3.00;2.03;;;6.90;99.90;;;;;;5077070;28;20130;-71
2022/09/22 04:40:40;;;;;;;;;;;6.90;99.90;;;;;;5105695;27;20491;-70
2022/09/22 04:43:05;;;;;;;3.13;2.13;;;6.90;99.90;;;;;;5111488;28;19915;-70
2022/09/22 04:45:31;;;;;;;3.42;2.22;;;6.90;99.90;;;;;;5111365;28;20563;-70
2022/09/22 04:47:57;;;;;;;5.30;2.30;;;6.80;99.90;;;;;;5095090;27;20119;-70
2022/09/22 04:50:23;;;;;;;9.20;4.10;;;6.80;99.90;;;;;;5127198;27;20464;-69
2022/09/22 04:52:51;;;;;;;6.07;3.55;;;6.80;99.90;;;;;;5132157;27;20035;-70
2022/09/22 04:55:17;;;;;;;8.02;3.97;;;6.80;99.90;;;;;;5131667;27;20753;-71
2022/09/22 04:57:49;;;;;;;9.45;4.60;;;6.80;99.90;;;;;;5131703;27;20047;-71
2022/09/22 05:00:16;;;;;;;8.52;3.67;;;6.80;99.90;;;;;;5127343;27;20046;-71
2022/09/22 05:02:42;;;;;;;11.25;2.13;;;6.80;99.90;;;;;;5110716;27;20062;-69
2022/09/22 05:05:08;;;;;;;6.30;3.08;;;6.80;99.90;;;;;;5111642;28;20476;-70
2022/09/22 05:07:34;;;;;;;5.93;3.65;;;6.80;99.90;;;;;;5095884;27;20043;-69
2022/09/22 05:10:01;;;;;;;11.65;2.80;;;6.70;99.90;;;;;;5131813;27;20527;-69
2022/09/22 05:12:27;;;;;;;4.53;2.33;;;6.70;99.90;;;;;;5092270;28;20036;-69
2022/09/22 05:14:53;;;;;;;15.13;2.83;;;6.70;99.90;;;;;;5092939;28;20055;-69
2022/09/22 05:17:19;;;;;;;48.33;4.45;;;6.70;99.90;;;;;;5108430;28;20043;-71
2022/09/22 05:19:45;;;;;;;5.53;2.92;;;6.70;99.90;;;;;;5111397;28;20050;-69
2022/09/22 05:22:11;;;;;;;7.22;2.67;;;6.70;99.90;;;;;;5093220;28;20051;-69
2022/09/22 05:24:37;;;;;;;;;;;6.70;99.90;;;;;;5097173;28;20614;-69
2022/09/22 05:27:04;;;;;;;12.75;2.90;;;6.60;99.90;;;;;;5076535;28;19998;-69
2022/09/22 05:29:29;;;;;;;7.07;2.85;;;6.60;99.90;;;;;;5130847;27;20058;-69
2022/09/22 05:31:55;;;;;;;5.50;2.45;;;6.60;99.90;;;;;;5129056;27;20052;-69
2022/09/22 05:34:21;;;;;;;13.15;2.97;;;6.60;99.90;;;;;;5095665;27;20051;-71
2022/09/22 05:36:47;;;;;;;3.72;2.53;;;6.60;99.90;;;;;;5113105;27;20038;-69
2022/09/22 05:39:12;;;;;;;4.50;3.05;;;6.60;99.90;;;;;;5131439;27;20395;-70
2022/09/22 05:41:38;;;;;;;5.18;3.38;;;6.60;99.90;;;;;;5130522;27;20181;-70
2022/09/22 05:44:04;;;;;;;6.22;3.60;;;6.60;99.90;;;;;;5131259;27;20039;-70
2022/09/22 05:46:29;;;;;;;8.32;4.22;;;6.60;99.90;;;;;;5111137;27;20043;-69
2022/09/22 05:48:55;;;;;;;10.90;5.38;;;6.60;99.90;;;;;;5120871;27;20471;-69
2022/09/22 05:51:21;;;;;;;10.02;5.53;;;6.70;99.90;;;;;;5116263;27;20054;-71
2022/09/22 05:53:46;;;;;;;11.07;6.03;;;6.70;99.90;;;;;;5130730;27;20379;-70
2022/09/22 05:56:12;;;;;;;17.17;7.93;;;6.80;99.90;;;;;;5130715;27;20410;-69
2022/09/22 05:58:38;;;;;;;16.10;5.43;;;6.90;99.90;;;;;;5111349;27;20047;-70
2022/09/22 06:01:03;;;;;;;21.27;3.60;;;6.90;99.90;;;;;;5129890;27;20043;-70
2022/09/22 06:03:29;;;;;;;8.00;3.75;;;7.00;99.90;;;;;;5128675;27;20035;-70
2022/09/22 06:05:55;;;;;;;13.38;4.00;;;7.00;99.90;;;;;;5125705;27;20035;-70
2022/09/22 06:08:21;;;;;;;6.47;3.35;;;7.00;99.90;;;;;;5109958;28;20045;-71
2022/09/22 06:10:49;;;;;;;5.55;3.15;;;7.00;99.90;;;;;;5112259;27;20380;-69
2022/09/22 06:13:16;;;;;;;7.57;3.10;;;7.00;99.90;;;;;;5129901;27;20035;-69
2022/09/22 06:15:45;;;;;;;5.32;3.22;;;7.00;99.90;;;;;;5130068;27;20043;-68
2022/09/22 06:18:12;;;;;;;10.85;5.63;;;7.00;99.90;;;;;;5129278;27;20100;-69
2022/09/22 06:20:38;;;;;;;11.75;5.13;;;7.00;99.90;;;;;;5131305;27;20076;-68
2022/09/22 06:23:03;;;;;;;16.23;7.45;;;7.10;99.90;;;;;;5131446;27;20039;-74
2022/09/22 06:25:29;;;;;;;14.80;7.60;;;7.20;99.90;;;;;;5109592;27;20050;-71
2022/09/22 06:28:04;;;;;;;12.55;7.05;;;7.30;99.90;;;;;;5126849;27;20096;-70
2022/09/22 06:30:34;;;;;;;15.00;6.72;;;7.50;99.90;;;;;;5130922;27;20540;-69
2022/09/22 06:33:01;;;;;;;15.57;6.53;;;7.60;99.90;;;;;;5129666;27;20059;-68
2022/09/22 06:35:34;;;;;;;11.88;6.30;;;7.70;99.90;;;;;;5112675;28;20594;-70
2022/09/22 06:37:59;;;;;;;13.38;6.50;;;7.80;99.90;;;;;;5131603;27;20047;-72
2022/09/22 06:40:25;;;;;;;13.70;6.65;;;7.90;99.90;;;;;;5131095;27;20031;-72
2022/09/22 06:42:58;;;;;;;15.07;7.20;;;7.90;99.90;;;;;;5131174;28;20044;-70
2022/09/22 06:45:28;;;;;;;13.68;6.88;;;8.00;99.90;;;;;;5131251;28;20039;-71
2022/09/22 06:47:57;;;;;;;12.95;6.43;;;8.10;99.90;;;;;;5129432;28;20102;-70
2022/09/22 06:50:29;;;;;;;10.90;6.22;;;8.10;99.90;;;;;;5130534;28;20653;-73
2022/09/22 06:53:03;;;;;;;11.25;6.45;;;8.20;99.90;;;;;;5131562;28;20474;-68
2022/09/22 06:55:30;;;;;;;14.73;6.88;;;8.30;99.90;;;;;;5128378;28;20207;-70
2022/09/22 06:58:00;;;;;;;10.70;6.28;;;8.30;99.90;;;;;;5122828;28;20055;-68
2022/09/22 07:00:31;;;;;;;14.88;7.30;;;8.40;99.90;;;;;;5110296;28;20146;-76
2022/09/22 07:03:07;;;;;;;10.68;6.40;;;8.40;99.90;;;;;;5074434;28;20485;-71
2022/09/22 07:05:34;;;;;;;11.48;6.50;;;8.50;99.90;;;;;;5110270;28;20048;-68
2022/09/22 07:08:00;;;;;;;17.23;6.80;;;8.60;99.90;;;;;;5092727;28;20154;-69
2022/09/22 07:10:26;;;;;;;;;;;8.70;99.90;;;;;;5121908;27;20040;-71
2022/09/22 07:12:53;;;;;;;13.10;6.18;;;8.70;99.90;;;;;;5115925;28;19915;-70
2022/09/22 07:15:19;;;;;;;14.38;6.60;;;8.80;99.90;;;;;;5131371;28;20043;-69
2022/09/22 07:17:44;;;;;;;16.98;7.65;;;8.90;99.90;;;;;;5101644;28;20050;-69
2022/09/22 07:20:11;;;;;;;13.23;7.15;;;9.00;99.90;;;;;;5102455;28;20042;-70
2022/09/22 07:22:38;;;;;;;13.43;7.00;;;9.00;99.90;;;;;;5086900;28;20126;-69
2022/09/22 07:25:07;;;;;;;13.98;6.28;;;9.10;99.90;;;;;;5107882;28;20511;-69
2022/09/22 07:27:34;;;;;;;14.43;6.55;;;9.20;99.90;;;;;;5103596;28;20129;-71
2022/09/22 07:30:00;;;;;;;;;;;9.30;99.90;;;;;;5100941;28;20051;-75
2022/09/22 07:32:29;;;;;;;11.35;5.72;;;9.40;99.90;;;;;;5142229;27;19915;-75
2022/09/22 07:34:55;;;;;;;14.73;6.15;;;9.50;99.90;;;;;;5131015;27;20038;-75
2022/09/22 07:37:22;;;;;;;11.73;5.95;;;9.60;99.90;;;;;;5116594;27;20050;-75
2022/09/22 07:39:48;;;;;;;12.63;6.15;;;9.60;99.90;;;;;;5115285;27;20352;-75
2022/09/22 07:42:13;;;;;;;14.98;6.57;;;9.70;99.90;;;;;;5116192;27;20070;-75
2022/09/22 07:50:08;;;;;;;11.90;6.15;;;10.00;99.90;;;;;;5131543;27;20047;-74
2022/09/22 07:52:33;;;;;;;14.82;6.30;;;10.10;99.90;;;;;;5128454;27;20039;-75
2022/09/22 07:54:59;;;;;;;8.73;5.25;;;10.20;99.90;;;;;;5125356;27;20054;-76
2022/09/22 07:57:24;;;;;;;9.93;5.88;;;10.30;99.90;;;;;;5132502;27;20075;-75
2022/09/22 07:59:50;;;;;;;11.30;5.82;;;10.40;99.90;;;;;;5149640;27;20043;-75
2022/09/22 08:02:16;;;;;;;14.65;6.30;;;10.50;99.90;;;;;;5130920;27;20460;-75
2022/09/22 08:04:42;;;;;;;14.30;5.65;;;10.60;99.90;;;;;;5148667;27;20035;-75
2022/09/22 08:07:08;;;;;;;12.88;4.82;;;10.80;99.90;;;;;;5118044;27;20038;-76
2022/09/22 08:09:34;;;;;;;10.23;5.20;;;10.90;99.90;;;;;;5130534;27;20038;-75
2022/09/22 08:12:01;;;;;;;10.30;4.65;;;11.00;99.90;;;;;;5132233;27;20118;-75
2022/09/22 08:14:27;;;;;;;;;;;11.10;99.90;;;;;;5126803;27;20097;-75
2022/09/22 08:16:52;;;;;;;13.55;5.50;;;11.20;99.90;;;;;;5124292;27;19954;-75
2022/09/22 08:19:20;;;;;;;17.55;5.60;;;11.40;99.90;;;;;;5132609;27;20074;-75
2022/09/22 08:21:48;;;;;;;12.55;4.88;;;11.40;99.90;;;;;;5131428;27;20050;-76
2022/09/22 08:24:19;;;;;;;9.65;4.45;;;11.60;99.90;;;;;;5150809;27;20053;-75
2022/09/22 08:26:46;;;;;;;9.93;5.05;;;11.70;99.90;;;;;;5114836;27;20371;-76
2022/09/22 08:29:11;;;;;;;;;;;11.80;99.90;;;;;;5109540;27;20028;-76
2022/09/22 08:31:45;;;;;;;9.00;4.60;;;12.00;99.90;;;;;;5111093;27;19919;-76
2022/09/22 08:34:16;;;;;;;9.55;4.07;;;12.10;99.90;;;;;;5131067;27;20047;-75
2022/09/22 08:36:45;;;;;;;9.63;4.15;;;12.20;99.90;;;;;;5113535;27;20497;-75
2022/09/22 08:39:11;;;;;;;9.65;4.45;;;12.30;99.90;;;;;;5139989;27;20043;-76
2022/09/22 08:41:41;;;;;;;8.68;4.88;;;12.40;99.90;;;;;;5087670;27;20062;-75
2022/09/22 08:44:10;;;;;;;10.18;3.65;;;12.50;99.90;;;;;;5110186;28;20048;-75
2022/09/22 08:46:42;;;;;;;7.20;3.50;;;12.60;99.90;;;;;;5119070;27;20100;-75
2022/09/22 08:52:47;;;;;;;9.95;3.80;;;12.80;99.90;;;;;;5110776;27;20464;-76
2022/09/22 08:55:22;;;;;;;10.50;4.03;;;12.90;99.90;;;;;;5101862;27;20039;-76
2022/09/22 08:58:12;;;;;;;7.65;3.92;;;13.00;99.90;;;;;;5097136;28;20136;-76
2022/09/22 09:00:49;;;;;;;7.72;3.88;;;13.10;99.90;;;;;;5114348;27;20455;-76
2022/09/22 09:03:39;;;;;;;9.02;3.90;;;13.20;99.90;;;;;;5095931;27;20027;-76
2022/09/22 09:06:16;;;;;;;9.30;3.80;;;13.30;99.90;;;;;;5114818;27;20185;-76
2022/09/22 09:09:19;;;;;;;6.05;3.33;;;13.40;99.90;;;;;;5116905;27;20095;-76
2022/09/22 09:11:59;;;;;;;10.88;3.53;;;13.50;99.90;;;;;;5086000;27;20039;-76
2022/09/22 09:15:08;;;;;;;7.22;4.13;;;13.60;99.90;;;;;;5128541;27;20045;-76
2022/09/22 09:17:37;;;;;;;6.85;3.30;;;13.70;99.90;;;;;;5074095;27;20055;-76
2022/09/22 09:20:29;;;;;;;7.50;3.50;;;13.80;99.90;;;;;;5132869;27;20100;-76
2022/09/22 09:22:56;;;;;;;11.18;3.22;;;13.90;99.90;;;;;;5117928;27;20043;-76
2022/09/22 09:25:37;;;;;;;5.13;2.80;;;14.10;99.90;;;;;;5111256;27;20043;-76
2022/09/22 09:28:14;;;;;;;4.50;2.70;;;14.20;99.90;;;;;;5113516;27;20110;-76
2022/09/22 09:30:49;;;;;;;9.68;2.97;;;14.30;99.90;;;;;;5113050;27;20506;-74
2022/09/22 09:33:31;;;;;;;7.22;2.13;;;14.40;99.90;;;;;;5111809;27;20183;-74
2022/09/22 09:35:58;;;;;;;9.32;2.50;;;14.50;99.90;;;;;;5131845;27;20039;-75
2022/09/22 09:38:37;;;;;;;7.43;2.17;;;14.50;99.90;;;;;;5114169;27;20058;-80
2022/09/22 09:41:16;;;;;;;3.75;2.05;;;14.60;99.90;;;;;;5096783;27;20151;-79
2022/09/22 09:43:44;;;;;;;5.63;2.10;;;14.70;99.90;;;;;;5131395;27;20073;-80
2022/09/22 09:46:33;;;;;;;5.93;2.15;;;14.80;99.90;;;;;;5100515;27;20076;-87
2022/09/22 09:49:08;;;;;;;3.90;1.90;;;14.90;99.90;;;;;;5073090;27;20054;-76
2022/09/22 09:51:37;;;;;;;5.22;2.17;;;15.10;99.90;;;;;;5114154;27;20543;-79
2022/09/22 09:54:06;;;;;;;4.88;2.83;;;15.30;99.90;;;;;;5112188;27;20122;-82
2022/09/22 09:56:35;;;;;;;6.05;2.10;;;15.30;99.90;;;;;;5127520;27;20044;-77
2022/09/22 10:01:52;;;;;;;7.90;2.05;;;15.60;99.90;;;;;;5123281;27;20123;-78
2022/09/22 10:04:30;;;;;;;5.57;1.55;;;15.70;99.90;;;;;;5130445;27;20463;-78
2022/09/22 10:07:09;;;;;;;2.65;1.27;;;15.80;99.90;;;;;;5130368;27;20043;-78
2022/09/22 10:09:35;;;;;;;2.45;1.50;;;15.80;99.90;;;;;;5093416;27;20037;-80
2022/09/22 10:12:02;;;;;;;;;;;15.90;99.90;;;;;;5130771;27;20190;-75
2022/09/22 10:14:33;;;;;;;7.32;1.73;;;16.00;96.70;;;;;;5131576;27;19915;-76
2022/09/22 10:16:59;;;;;;;4.45;1.80;;;16.00;99.70;;;;;;5128147;27;20049;-77
2022/09/22 10:19:29;;;;;;;6.05;2.22;;;16.00;99.90;;;;;;5131423;27;20034;-73
2022/09/22 10:22:26;;;;;;;8.73;2.33;;;16.10;99.80;;;;;;5131013;27;20046;-70
2022/09/22 10:24:56;;;;;;;4.03;1.50;;;16.20;98.80;;;;;;5130849;27;20039;-73
2022/09/22 10:27:24;;;;;;;2.35;1.38;;;16.30;97.80;;;;;;5140708;27;20777;-74
2022/09/22 10:30:20;;;;;;;5.75;2.20;;;16.40;98.20;;;;;;5119160;27;20051;-78
2022/09/22 10:33:04;;;;;;;5.47;1.50;;;16.50;94.40;;;;;;5126776;27;20054;-76
2022/09/22 10:35:33;;;;;;;4.22;1.08;;;16.50;92.00;;;;;;5095603;27;20061;-77
2022/09/22 10:38:11;;;;;;;4.70;0.95;;;16.60;93.50;;;;;;5112506;28;20113;-76
2022/09/22 10:40:40;;;;;;;15.43;2.55;;;16.70;91.60;;;;;;5129250;27;20043;-82
2022/09/22 10:43:39;;;;;;;5.22;2.10;;;16.80;92.50;;;;;;5130086;27;20047;-78
2022/09/22 10:46:17;;;;;;;6.18;2.17;;;17.00;90.30;;;;;;5062803;28;20059;-76
2022/09/22 10:48:48;;;;;;;4.30;2.10;;;17.10;91.50;;;;;;5129720;28;20039;-77
2022/09/22 10:51:55;;;;;;;4.28;1.70;;;17.20;91.30;;;;;;5112970;28;20714;-77
2022/09/22 10:54:48;;;;;;;3.97;1.90;;;17.30;87.60;;;;;;5131210;28;20076;-77
2022/09/22 10:57:27;;;;;;;6.07;1.70;;;17.50;87.40;;;;;;5112269;28;20492;-76
2022/09/22 10:59:56;;;;;;;6.50;2.20;;;17.70;84.40;;;;;;5129544;28;20078;-78
2022/09/22 11:02:46;;;;;;;3.83;1.90;;;17.80;88.50;;;;;;5093771;28;20073;-80
2022/09/22 11:12:15;;;;;;;6.65;1.90;;;18.00;84.70;;;;;;5114507;27;20081;-80
2022/09/22 11:14:21;;;;;;;6.85;2.67;;;19.10;78.50;;;;;;5134265;27;20058;-75
2022/09/22 11:17:23;;;;;;;5.55;2.65;;;19.40;72.10;;;;;;5121156;27;20503;-76
2022/09/22 11:20:03;;;;;;;5.50;2.45;;;19.50;68.80;;;;;;5120996;27;20096;-74
2022/09/22 11:22:47;;;;;;;6.28;2.70;;;19.50;76.00;;;;;;5123135;27;20476;-69
2022/09/22 11:25:22;;;;;;;4.68;2.25;;;19.50;70.60;;;;;;5128766;27;20074;-72
2022/09/22 11:28:10;;;;;;;8.70;2.92;;;19.70;76.70;;;;;;5120361;27;20501;-70
2022/09/22 11:30:57;;;;;;;5.47;2.40;;;19.80;76.60;;;;;;5114663;27;20118;-76
2022/09/22 11:33:44;;;;;;;4.40;2.42;;;19.60;71.70;;;;;;5115205;27;20548;-75
2022/09/22 11:36:19;;;;;;;5.13;2.53;;;19.40;73.70;;;;;;5115734;27;20480;-76
2022/09/22 11:39:10;;;;;;;7.65;2.78;;;19.50;77.00;;;;;;5134373;27;20472;-76
2022/09/22 11:41:44;;;;;;;5.45;2.50;;;19.90;75.10;;;;;;5116104;27;20353;-73
2022/09/22 11:44:19;;;;;;;5.53;2.45;;;20.20;78.40;;;;;;5132087;27;20078;-70
2022/09/22 11:47:05;;;;;;;6.22;2.72;;;20.10;71.50;;;;;;5114554;27;20050;-71
2022/09/22 11:49:58;;;;;;;5.18;2.25;;;19.70;69.00;;;;;;5122264;27;20039;-70
2022/09/22 11:52:56;;;;;;;4.43;1.85;;;19.40;73.60;;;;;;5134344;27;20035;-70
2022/09/22 11:55:45;;;;;;;4.38;2.08;;;19.70;72.50;;;;;;5134280;27;20035;-70
2022/09/22 11:58:19;;;;;;;5.30;2.70;;;20.70;72.40;;;;;;5132982;27;20147;-70
2022/09/22 12:01:00;;;;;;;7.45;2.78;;;21.70;72.60;;;;;;5100822;27;20043;-70
2022/09/22 12:03:32;;;;;;;7.00;2.90;;;22.40;68.20;;;;;;5096117;27;20121;-71
2022/09/22 12:06:04;;;;;;;5.35;2.58;;;22.90;72.20;;;;;;5110153;27;20031;-71
2022/09/22 12:08:52;;;;;;;5.28;2.53;;;23.40;68.80;;;;;;5144053;27;20050;-76
2022/09/22 12:11:19;;;;;;;7.15;2.40;;;24.10;62.20;;;;;;5152169;27;20066;-83
2022/09/22 12:13:47;;;;;;;6.10;2.20;;;24.90;70.00;;;;;;5135856;27;20046;-84
2022/09/22 12:16:32;;;;;;;5.13;2.28;;;25.60;68.70;;;;;;5131948;27;20449;-77
2022/09/22 12:19:20;;;;;;;4.73;1.93;;;26.00;62.80;;;;;;5133015;27;20054;-76
2022/09/22 12:22:04;;;;;;;4.82;2.13;;;26.20;59.10;;;;;;5115995;27;20074;-76
2022/09/22 12:24:31;;;;;;;2.78;1.83;;;25.90;57.50;;;;;;5133616;27;20082;-76
2022/09/22 12:26:57;;;;;;;3.42;2.00;;;25.80;62.50;;;;;;5123719;27;20124;-76
2022/09/22 12:29:26;;;;;;;3.90;1.95;;;25.80;61.40;;;;;;5115074;27;20092;-77
2022/09/22 12:31:55;;;;;;;4.03;1.77;;;25.60;59.70;;;;;;5102147;27;20042;-77
2022/09/22 12:34:38;;;;;;;5.90;2.42;;;25.80;59.60;;;;;;5116008;27;20043;-76
2022/09/22 12:37:28;;;;;;;6.18;1.80;;;26.00;58.90;;;;;;5125032;27;20558;-76
2022/09/22 12:39:59;;;;;;;3.90;1.55;;;26.30;54.70;;;;;;5110673;27;20043;-79
2022/09/22 12:42:37;;;;;;;5.13;2.13;;;26.60;57.60;;;;;;5115052;27;20055;-80
2022/09/22 12:45:29;;;;;;;9.50;2.22;;;26.70;53.60;;;;;;5114746;27;20058;-79
2022/09/22 12:47:58;;;;;;;4.95;1.90;;;26.30;53.60;;;;;;5108354;28;20056;-79
2022/09/22 12:50:23;;;;;;;3.88;2.00;;;26.10;54.70;;;;;;5113196;28;20058;-78
2022/09/22 12:52:50;;;;;;;6.95;2.40;;;25.80;53.80;;;;;;5094841;28;20039;-81
2022/09/22 12:55:40;;;;;;;4.05;2.42;;;25.10;53.40;;;;;;5112739;28;20083;-81
2022/09/22 12:58:18;;;;;;;4.43;1.77;;;24.20;52.60;;;;;;5093837;28;20039;-80
2022/09/22 13:00:43;;;;;;;4.35;1.90;;;23.50;53.30;;;;;;5094957;28;20090;-80
2022/09/22 13:03:24;;;;;;;4.95;1.83;;;23.20;54.00;;;;;;5110315;28;20799;-78
2022/09/22 13:05:56;;;;;;;3.67;1.92;;;23.60;53.20;;;;;;5112820;28;20052;-78
2022/09/22 13:08:31;;;;;;;5.13;1.90;;;24.30;52.90;;;;;;5077608;28;20043;-79
2022/09/22 13:11:07;;;;;;;8.02;2.20;;;25.00;50.70;;;;;;5103257;27;20122;-78
2022/09/22 13:13:41;;;;;;;4.25;1.83;;;25.70;52.10;;;;;;5094597;28;20050;-79
2022/09/22 13:16:13;;;;;;;5.55;2.33;;;26.20;50.80;;;;;;5092718;28;20053;-78
2022/09/22 13:18:43;;;;;;;3.78;2.13;;;26.40;49.50;;;;;;5093487;28;20043;-78
2022/09/22 13:21:12;;;;;;;5.97;2.42;;;26.20;50.00;;;;;;5077091;28;20047;-79
2022/09/22 13:23:50;;;;;;;4.63;2.38;;;26.60;49.60;;;;;;5094375;28;20055;-79
2022/09/22 13:26:23;;;;;;;3.97;2.00;;;27.10;47.60;;;;;;5093561;28;20051;-79
2022/09/22 13:29:05;;;;;;;5.38;2.17;;;27.40;48.40;;;;;;5094183;28;20047;-79
2022/09/22 13:31:37;;;;;;;5.93;1.98;;;27.80;46.60;;;;;;5098521;27;20046;-80
2022/09/22 13:34:24;;;;;;;4.25;1.90;;;28.10;46.80;;;;;;5097494;28;20076;-79
2022/09/22 13:36:53;;;;;;;4.20;1.80;;;27.60;45.40;;;;;;5094185;28;20063;-79